createdAt,value
2022-10-23T00:01:27.436Z,43.17
2022-10-23T00:03:58.139Z,46.10
2022-10-23T00:06:26.693Z,37.47
2022-10-23T00:08:55.268Z,35.47
2022-10-23T00:11:26.938Z,37.07
2022-10-23T00:13:57.276Z,35.90
2022-10-23T00:16:25.113Z,31.80
2022-10-23T00:18:52.959Z,32.47
2022-10-23T00:21:21.289Z,34.10
2022-10-23T00:23:49.172Z,29.77
2022-10-23T00:26:17.477Z,29.77
2022-10-23T00:28:48.296Z,29.93
2022-10-23T00:31:16.375Z,27.97
2022-10-23T00:33:44.960Z,27.73
2022-10-23T00:36:15.660Z,30.93
2022-10-23T00:38:43.495Z,26.87
2022-10-23T00:41:17.166Z,27.30
2022-10-23T00:44:01.955Z,26.63
2022-10-23T00:46:29.826Z,26.87
2022-10-23T00:48:58.860Z,27.20
2022-10-23T00:51:30.616Z,25.57
2022-10-23T00:54:22.833Z,23.53
2022-10-23T00:56:50.096Z,26.80
2022-10-23T00:59:19.431Z,34.43
2022-10-23T01:01:48.361Z,40.27
2022-10-23T01:04:16.467Z,37.27
2022-10-23T01:06:52.506Z,36.60
2022-10-23T01:09:28.196Z,34.70
2022-10-23T01:12:02.414Z,35.47
2022-10-23T01:14:43.561Z,34.63
2022-10-23T01:17:19.327Z,34.60
2022-10-23T01:20:02.497Z,35.73
2022-10-23T01:22:49.140Z,28.70
2022-10-23T01:25:29.763Z,30.07
2022-10-23T01:28:03.895Z,30.60
2022-10-23T01:30:34.802Z,31.33
2022-10-23T01:33:07.189Z,29.20
2022-10-23T01:35:38.185Z,31.37
2022-10-23T01:38:13.133Z,29.40
2022-10-23T01:40:48.737Z,29.57
2022-10-23T01:43:21.407Z,29.17
2022-10-23T01:45:52.781Z,26.60
2022-10-23T01:48:24.799Z,27.53
2022-10-23T01:50:54.911Z,28.43
2022-10-23T01:53:24.076Z,27.63
2022-10-23T01:55:53.099Z,27.80
2022-10-23T01:58:24.093Z,33.27
2022-10-23T02:00:53.751Z,29.93
2022-10-23T02:03:23.212Z,28.63
2022-10-23T02:05:51.213Z,27.50
2022-10-23T02:08:19.191Z,28.40
2022-10-23T02:10:52.871Z,25.40
2022-10-23T02:13:29.515Z,33.63
2022-10-23T02:16:06.768Z,26.27
2022-10-23T02:18:43.973Z,26.33
2022-10-23T02:21:15.311Z,24.23
2022-10-23T02:23:52.527Z,26.30
2022-10-23T02:26:27.188Z,25.10
2022-10-23T02:29:01.360Z,26.83
2022-10-23T02:31:29.240Z,27.60
2022-10-23T02:33:57.142Z,25.53
2022-10-23T02:36:24.976Z,28.60
2022-10-23T02:38:52.813Z,31.20
2022-10-23T02:41:37.355Z,30.10
2022-10-23T02:44:19.436Z,30.07
2022-10-23T02:46:54.351Z,32.77
2022-10-23T02:49:27.903Z,26.90
2022-10-23T02:52:05.380Z,26.17
2022-10-23T02:54:44.370Z,27.97
2022-10-23T02:57:21.315Z,27.73
2022-10-23T02:59:56.790Z,24.37
2022-10-23T03:02:30.062Z,24.37
2022-10-23T03:05:01.629Z,23.53
2022-10-23T03:07:29.807Z,23.87
2022-10-23T03:09:57.621Z,24.03
2022-10-23T03:12:25.529Z,26.43
2022-10-23T03:14:54.820Z,24.40
2022-10-23T03:17:22.651Z,23.77
2022-10-23T03:19:50.451Z,28.57
2022-10-23T03:22:18.769Z,26.83
2022-10-23T03:24:46.819Z,24.97
2022-10-23T03:27:14.926Z,25.43
2022-10-23T03:29:43.000Z,25.20
2022-10-23T03:32:12.253Z,25.53
2022-10-23T03:34:40.080Z,25.40
2022-10-23T03:37:07.912Z,25.67
2022-10-23T03:39:35.847Z,24.67
2022-10-23T03:42:03.665Z,24.67
2022-10-23T03:44:32.205Z,24.83
2022-10-23T03:47:00.031Z,22.93
2022-10-23T03:49:29.506Z,23.63
2022-10-23T03:51:57.347Z,25.67
2022-10-23T03:54:26.392Z,25.47
2022-10-23T03:56:56.639Z,23.20
2022-10-23T03:59:25.514Z,23.40
2022-10-23T04:01:53.486Z,20.63
2022-10-23T04:04:21.503Z,21.83
2022-10-23T04:06:50.749Z,21.47
2022-10-23T04:09:18.736Z,21.37
2022-10-23T04:11:46.599Z,23.37
2022-10-23T04:14:15.040Z,21.90
2022-10-23T04:16:43.113Z,24.73
2022-10-23T04:19:10.984Z,21.70
2022-10-23T04:21:38.937Z,21.27
2022-10-23T04:24:08.699Z,23.70
2022-10-23T04:26:36.613Z,21.50
2022-10-23T04:29:04.770Z,21.83
2022-10-23T04:31:32.640Z,26.47
2022-10-23T04:34:00.655Z,19.40
2022-10-23T04:36:28.613Z,24.23
2022-10-23T04:38:56.428Z,22.17
2022-10-23T04:41:25.739Z,29.37
2022-10-23T04:43:53.588Z,27.07
2022-10-23T04:46:21.425Z,26.10
2022-10-23T04:48:49.325Z,23.83
2022-10-23T04:51:17.337Z,25.30
2022-10-23T04:53:45.185Z,28.77
2022-10-23T04:56:14.913Z,26.03
2022-10-23T04:58:44.118Z,25.43
2022-10-23T05:01:12.312Z,26.47
2022-10-23T05:03:40.351Z,24.07
2022-10-23T05:06:08.440Z,24.47
2022-10-23T05:08:36.901Z,24.43
2022-10-23T05:11:05.248Z,27.20
2022-10-23T05:13:33.172Z,25.97
2022-10-23T05:16:02.415Z,24.17
2022-10-23T05:18:34.216Z,27.53
2022-10-23T05:21:05.662Z,24.33
2022-10-23T05:23:37.061Z,26.50
2022-10-23T05:26:05.848Z,26.93
2022-10-23T05:28:33.813Z,26.00
2022-10-23T05:31:06.223Z,23.80
2022-10-23T05:33:34.516Z,23.80
2022-10-23T05:36:02.736Z,25.73
2022-10-23T05:38:34.849Z,26.63
2022-10-23T05:41:03.190Z,26.20
2022-10-23T05:43:31.487Z,25.27
2022-10-23T05:45:59.562Z,25.60
2022-10-23T05:48:34.792Z,26.77
2022-10-23T05:51:06.703Z,32.67
2022-10-23T05:53:36.252Z,26.37
2022-10-23T05:56:07.710Z,31.63
2022-10-23T05:58:37.360Z,25.53
2022-10-23T06:01:11.243Z,26.80
2022-10-23T06:03:42.474Z,22.20
2022-10-23T06:06:11.999Z,26.93
2022-10-23T06:08:41.994Z,20.90
2022-10-23T06:11:13.569Z,23.27
2022-10-23T06:13:44.762Z,20.27
2022-10-23T06:16:16.107Z,19.57
2022-10-23T06:18:46.020Z,19.83
2022-10-23T06:21:14.662Z,18.53
2022-10-23T06:23:44.050Z,22.00
2022-10-23T06:26:14.624Z,19.73
2022-10-23T06:28:42.847Z,20.27
2022-10-23T06:31:12.908Z,22.53
2022-10-23T06:33:41.449Z,19.20
2022-10-23T06:36:11.348Z,17.50
2022-10-23T06:38:40.639Z,17.10
2022-10-23T06:41:13.650Z,17.23
2022-10-23T06:43:41.508Z,16.10
2022-10-23T06:46:09.980Z,14.63
2022-10-23T06:48:37.825Z,12.57
2022-10-23T06:51:08.026Z,14.93
2022-10-23T06:53:37.777Z,15.65
2022-10-23T06:56:07.361Z,9.18
2022-10-23T06:58:35.478Z,11.82
2022-10-23T07:01:05.053Z,10.48
2022-10-23T07:03:34.305Z,8.48
2022-10-23T07:06:02.403Z,10.20
2022-10-23T07:08:30.477Z,8.10
2022-10-23T07:11:04.751Z,12.50
2022-10-23T07:13:32.634Z,24.77
2022-10-23T07:16:00.489Z,17.65
2022-10-23T07:18:28.401Z,9.45
2022-10-23T07:20:59.581Z,9.35
2022-10-23T07:23:27.540Z,24.60
2022-10-23T07:25:55.414Z,15.60
2022-10-23T07:28:24.774Z,12.35
2022-10-23T07:30:58.064Z,14.15
2022-10-23T07:33:25.980Z,10.10
2022-10-23T07:35:54.330Z,8.60
2022-10-23T07:38:22.256Z,9.65
2022-10-23T07:40:50.207Z,7.85
2022-10-23T07:43:18.709Z,8.02
2022-10-23T07:45:49.756Z,8.70
2022-10-23T07:48:18.199Z,11.00
2022-10-23T07:50:46.431Z,11.85
2022-10-23T07:53:18.896Z,12.25
2022-10-23T07:55:53.619Z,12.00
2022-10-23T07:58:21.495Z,8.85
2022-10-23T08:00:56.606Z,9.23
2022-10-23T08:03:24.502Z,12.95
2022-10-23T08:05:53.637Z,10.68
2022-10-23T08:08:23.798Z,188.18
2022-10-23T08:10:53.347Z,12.48
2022-10-23T08:13:21.816Z,13.68
2022-10-23T08:15:52.538Z,8.82
2022-10-23T08:18:20.747Z,17.15
2022-10-23T08:20:51.226Z,12.00
2022-10-23T08:23:20.323Z,10.13
2022-10-23T08:25:48.320Z,9.43
2022-10-23T08:28:17.505Z,9.45
2022-10-23T08:30:48.766Z,16.40
2022-10-23T08:33:18.838Z,6.00
2022-10-23T08:35:48.613Z,7.22
2022-10-23T08:38:16.491Z,6.63
2022-10-23T08:40:46.878Z,7.45
2022-10-23T08:43:21.108Z,9.82
2022-10-23T08:45:53.979Z,11.70
2022-10-23T08:48:27.178Z,16.80
2022-10-23T08:50:59.379Z,14.30
2022-10-23T08:53:32.742Z,5.70
2022-10-23T08:56:04.155Z,9.23
2022-10-23T08:58:40.509Z,9.48
2022-10-23T09:01:34.093Z,8.10
2022-10-23T09:04:04.768Z,9.88
2022-10-23T09:06:40.464Z,5.53
2022-10-23T09:09:23.881Z,19.27
2022-10-23T09:12:00.805Z,7.65
2022-10-23T09:14:54.872Z,5.97
2022-10-23T09:17:26.999Z,6.28
2022-10-23T09:20:02.667Z,6.28
2022-10-23T09:22:30.642Z,6.63
2022-10-23T09:24:58.483Z,13.57
2022-10-23T09:27:26.352Z,5.10
2022-10-23T09:29:56.406Z,5.75
2022-10-23T09:32:34.680Z,7.40
2022-10-23T09:35:04.035Z,6.57
2022-10-23T09:37:35.861Z,8.52
2022-10-23T09:40:19.311Z,5.93
2022-10-23T09:42:56.863Z,8.57
2022-10-23T09:45:31.247Z,4.47
2022-10-23T09:48:13.442Z,5.80
2022-10-23T09:50:51.208Z,9.13
2022-10-23T09:53:27.911Z,10.90
2022-10-23T09:55:57.992Z,5.53
2022-10-23T09:58:33.568Z,7.32
2022-10-23T10:01:01.849Z,7.45
2022-10-23T10:03:29.844Z,7.68
2022-10-23T10:06:01.552Z,5.10
2022-10-23T10:08:45.338Z,5.72
2022-10-23T10:11:20.656Z,5.68
2022-10-23T10:14:02.467Z,5.13
2022-10-23T10:16:42.940Z,3.72
2022-10-23T10:19:24.601Z,5.38
2022-10-23T10:22:00.823Z,5.28
2022-10-23T10:24:37.118Z,7.05
2022-10-23T10:27:19.485Z,5.28
2022-10-23T10:30:03.716Z,6.68
2022-10-23T10:32:41.039Z,4.05
2022-10-23T10:35:23.609Z,4.00
2022-10-23T10:38:05.763Z,5.88
2022-10-23T10:40:37.287Z,4.38
2022-10-23T10:43:29.384Z,4.93
2022-10-23T10:46:04.267Z,7.32
2022-10-23T10:48:50.547Z,4.88
2022-10-23T10:51:27.408Z,4.20
2022-10-23T10:54:11.320Z,4.13
2022-10-23T10:56:42.924Z,3.72
2022-10-23T10:59:17.757Z,4.03
2022-10-23T11:01:52.300Z,5.30
2022-10-23T11:04:31.891Z,4.18
2022-10-23T11:07:02.689Z,3.95
2022-10-23T11:09:32.956Z,5.28
2022-10-23T11:12:00.937Z,5.13
2022-10-23T11:14:30.927Z,4.15
2022-10-23T11:17:04.413Z,3.60
2022-10-23T11:19:38.031Z,3.47
2022-10-23T11:22:12.319Z,3.42
2022-10-23T11:25:15.665Z,5.70
2022-10-23T11:28:03.321Z,3.40
2022-10-23T11:30:41.894Z,4.05
2022-10-23T11:33:46.707Z,3.42
2022-10-23T11:36:18.771Z,3.85
2022-10-23T11:38:48.947Z,4.60
2022-10-23T11:41:26.695Z,3.20
2022-10-23T11:44:01.404Z,3.17
2022-10-23T11:46:35.181Z,11.52
2022-10-23T11:49:06.053Z,5.25
2022-10-23T11:51:35.707Z,4.57
2022-10-23T11:54:24.636Z,6.13
2022-10-23T11:56:56.366Z,5.95
2022-10-23T11:59:28.904Z,5.25
2022-10-23T12:01:58.775Z,3.42
2022-10-23T12:04:31.816Z,3.45
2022-10-23T12:07:02.824Z,3.08
2022-10-23T12:09:42.603Z,2.97
2022-10-23T12:12:29.470Z,3.78
2022-10-23T12:15:10.141Z,5.18
2022-10-23T12:17:40.216Z,6.93
2022-10-23T12:20:23.683Z,3.25
2022-10-23T12:23:03.083Z,3.40
2022-10-23T12:25:40.271Z,3.70
2022-10-23T12:28:26.455Z,3.70
2022-10-23T12:31:04.894Z,4.00
2022-10-23T12:33:38.945Z,3.45
2022-10-23T12:36:25.873Z,5.50
2022-10-23T12:38:54.778Z,4.93
2022-10-23T12:41:26.467Z,3.30
2022-10-23T12:43:59.386Z,4.78
2022-10-23T12:46:34.986Z,5.18
2022-10-23T12:49:05.073Z,4.35
2022-10-23T12:51:34.764Z,3.67
2022-10-23T12:54:03.513Z,4.57
2022-10-23T12:56:36.759Z,5.43
2022-10-23T12:59:14.707Z,2.78
2022-10-23T13:01:43.457Z,12.65
2022-10-23T13:04:23.073Z,2.28
2022-10-23T13:06:53.094Z,5.53
2022-10-23T13:09:25.994Z,2.35
2022-10-23T13:11:54.416Z,3.33
2022-10-23T13:14:38.207Z,4.32
2022-10-23T13:17:10.218Z,1.90
2022-10-23T13:19:38.833Z,3.40
2022-10-23T13:22:19.138Z,3.58
2022-10-23T13:24:47.307Z,3.15
2022-10-23T13:27:26.924Z,2.47
2022-10-23T13:29:56.173Z,4.40
2022-10-23T13:32:25.685Z,5.20
2022-10-23T13:35:04.137Z,3.65
2022-10-23T13:37:38.406Z,5.35
2022-10-23T13:40:10.177Z,5.05
2022-10-23T13:42:38.009Z,5.65
2022-10-23T13:45:17.225Z,8.90
2022-10-23T13:47:45.468Z,8.05
2022-10-23T13:50:14.926Z,10.30
2022-10-23T13:52:42.867Z,7.75
2022-10-23T13:55:21.631Z,8.57
2022-10-23T13:57:49.504Z,7.97
2022-10-23T14:00:19.907Z,9.60
2022-10-23T14:02:47.859Z,9.25
2022-10-23T14:05:15.770Z,5.80
2022-10-23T14:07:43.839Z,4.55
2022-10-23T14:10:11.830Z,4.43
2022-10-23T14:12:41.719Z,3.65
2022-10-23T14:15:11.341Z,4.45
2022-10-23T14:17:40.581Z,4.63
2022-10-23T14:20:09.763Z,5.32
2022-10-23T14:22:37.637Z,5.47
2022-10-23T14:25:06.237Z,4.05
2022-10-23T14:27:34.160Z,4.00
2022-10-23T14:30:02.018Z,4.25
2022-10-23T14:32:30.867Z,3.58
2022-10-23T14:35:03.738Z,3.85
2022-10-23T14:37:32.111Z,3.33
2022-10-23T14:40:00.512Z,3.33
2022-10-23T14:42:34.069Z,4.53
2022-10-23T14:45:02.793Z,8.00
2022-10-23T14:47:32.959Z,5.85
2022-10-23T14:50:02.199Z,7.63
2022-10-23T14:52:30.039Z,11.43
2022-10-23T14:54:58.038Z,12.02
2022-10-23T14:57:25.914Z,10.32
2022-10-23T14:59:53.767Z,13.88
2022-10-23T15:02:21.620Z,20.13
2022-10-23T15:04:49.459Z,17.63
2022-10-23T15:07:18.712Z,19.00
2022-10-23T15:09:46.561Z,17.88
2022-10-23T15:12:14.600Z,24.33
2022-10-23T15:14:42.546Z,28.67
2022-10-23T15:17:15.456Z,27.00
2022-10-23T15:19:43.780Z,29.80
2022-10-23T15:22:11.632Z,27.57
2022-10-23T15:24:40.948Z,18.97
2022-10-23T15:29:37.610Z,13.50
2022-10-23T15:32:07.739Z,8.60
2022-10-23T15:34:36.317Z,12.10
2022-10-23T15:37:05.168Z,11.40
2022-10-23T15:39:35.441Z,18.40
2022-10-23T15:42:06.764Z,12.70
2022-10-23T15:44:35.198Z,11.27
2022-10-23T15:47:03.268Z,8.10
2022-10-23T15:49:31.359Z,6.27
2022-10-23T15:51:59.372Z,10.03
2022-10-23T15:54:30.520Z,9.17
2022-10-23T15:57:00.893Z,8.10
2022-10-23T15:59:31.502Z,10.67
2022-10-23T16:01:59.533Z,8.77
2022-10-23T16:04:28.533Z,8.70
2022-10-23T16:06:56.402Z,10.93
2022-10-23T16:09:24.237Z,9.50
2022-10-23T16:11:52.100Z,10.13
2022-10-23T16:14:20.066Z,9.80
2022-10-23T16:16:49.364Z,10.50
2022-10-23T16:19:17.307Z,10.23
2022-10-23T16:21:45.171Z,21.47
2022-10-23T16:24:13.048Z,11.83
2022-10-23T16:26:41.416Z,12.83
2022-10-23T16:29:10.582Z,11.60
2022-10-23T16:31:38.478Z,8.63
2022-10-23T16:34:08.251Z,7.63
2022-10-23T16:36:39.042Z,9.30
2022-10-23T16:39:07.956Z,13.13
2022-10-23T16:41:35.891Z,10.40
2022-10-23T16:44:03.834Z,10.20
2022-10-23T16:46:32.041Z,8.53
2022-10-23T16:48:59.920Z,9.57
2022-10-23T16:51:32.815Z,10.13
2022-10-23T16:54:00.679Z,9.33
2022-10-23T16:56:29.977Z,8.47
2022-10-23T17:01:32.983Z,8.67
2022-10-23T17:04:01.185Z,7.47
2022-10-23T17:06:32.251Z,9.60
2022-10-23T17:09:01.843Z,9.83
2022-10-23T17:11:31.514Z,10.77
2022-10-23T17:14:01.228Z,9.80
2022-10-23T17:16:31.432Z,9.17
2022-10-23T17:18:59.599Z,10.50
2022-10-23T17:21:27.496Z,16.43
2022-10-23T17:23:56.822Z,10.77
2022-10-23T17:26:24.736Z,12.50
2022-10-23T17:28:52.609Z,10.90
2022-10-23T17:31:22.813Z,8.10
2022-10-23T17:33:52.966Z,11.77
2022-10-23T17:36:22.634Z,12.90
2022-10-23T17:38:50.819Z,11.07
2022-10-23T17:41:22.525Z,9.13
2022-10-23T17:43:50.868Z,9.33
2022-10-23T17:46:19.954Z,8.53
2022-10-23T17:48:47.807Z,8.33
2022-10-23T17:51:17.314Z,8.10
2022-10-23T17:53:47.248Z,8.50
2022-10-23T17:56:19.081Z,11.20
2022-10-23T17:58:48.898Z,9.07
2022-10-23T18:01:20.093Z,9.77
2022-10-23T18:03:48.354Z,8.00
2022-10-23T18:06:19.283Z,9.83
2022-10-23T18:08:47.899Z,7.60
2022-10-23T18:11:16.997Z,7.77
2022-10-23T18:13:45.293Z,8.63
2022-10-23T18:16:15.431Z,9.00
2022-10-23T18:18:45.065Z,11.43
2022-10-23T18:21:12.894Z,8.37
2022-10-23T18:23:40.756Z,11.43
2022-10-23T18:26:15.984Z,9.07
2022-10-23T18:28:44.667Z,9.47
2022-10-23T18:31:14.649Z,9.93
2022-10-23T18:33:42.873Z,10.50
2022-10-23T18:36:15.667Z,10.93
2022-10-23T18:38:43.670Z,13.10
2022-10-23T18:41:11.820Z,13.43
2022-10-23T18:43:43.677Z,15.00
2022-10-23T18:46:12.003Z,16.13
2022-10-23T18:48:41.645Z,17.17
2022-10-23T18:51:15.788Z,18.37
2022-10-23T18:53:46.737Z,24.47
2022-10-23T18:56:15.466Z,25.67
2022-10-23T18:58:43.366Z,24.13
2022-10-23T19:01:11.253Z,23.97
2022-10-23T19:03:39.160Z,23.83
2022-10-23T19:06:09.573Z,23.70
2022-10-23T19:08:38.445Z,22.30
2022-10-23T19:11:07.424Z,21.83
2022-10-23T19:13:39.147Z,25.53
2022-10-23T19:16:09.886Z,44.23
2022-10-23T19:18:39.350Z,48.17
2022-10-23T19:21:08.772Z,33.27
2022-10-23T19:23:37.899Z,37.60
2022-10-23T19:26:08.856Z,26.53
2022-10-23T19:28:38.020Z,28.30
2022-10-23T19:31:07.624Z,26.53
2022-10-23T19:33:36.176Z,21.07
2022-10-23T19:36:05.317Z,31.60
2022-10-23T19:38:35.320Z,32.77
2022-10-23T19:41:03.890Z,31.40
2022-10-23T19:43:31.771Z,32.87
2022-10-23T19:46:05.170Z,29.83
2022-10-23T19:48:35.867Z,29.23
2022-10-23T19:51:03.687Z,31.20
2022-10-23T19:53:31.496Z,25.97
2022-10-23T19:56:05.297Z,28.73
2022-10-23T19:58:33.167Z,30.83
2022-10-23T20:01:08.328Z,30.17
2022-10-23T20:03:36.249Z,23.57
2022-10-23T20:06:04.135Z,30.73
2022-10-23T20:08:34.992Z,34.43
2022-10-23T20:11:04.840Z,31.33
2022-10-23T20:13:32.691Z,40.13
2022-10-23T20:16:00.629Z,39.47
2022-10-23T20:18:28.696Z,30.97
2022-10-23T20:20:56.543Z,49.17
2022-10-23T20:23:25.287Z,42.83
2022-10-23T20:25:53.111Z,39.73
2022-10-23T20:28:22.327Z,42.67
2022-10-23T20:30:50.164Z,50.53
2022-10-23T20:33:18.009Z,48.60
2022-10-23T20:35:45.897Z,44.80
2022-10-23T20:38:13.803Z,46.70
2022-10-23T20:40:41.625Z,45.30
2022-10-23T20:43:09.487Z,50.10
2022-10-23T20:45:38.684Z,45.73
2022-10-23T20:48:07.297Z,38.10
2022-10-23T20:50:35.950Z,25.53
2022-10-23T20:53:03.782Z,22.43
2022-10-23T20:55:31.676Z,25.07
2022-10-23T20:57:59.544Z,31.60
2022-10-23T21:00:27.430Z,38.10
2022-10-23T21:02:56.913Z,40.63
2022-10-23T21:05:24.932Z,44.37
2022-10-23T21:07:52.756Z,43.60
2022-10-23T21:10:20.639Z,52.60
2022-10-23T21:12:48.440Z,47.93
2022-10-23T21:15:16.299Z,42.77
2022-10-23T21:17:44.103Z,45.13
2022-10-23T21:20:13.443Z,44.77
2022-10-23T21:22:41.495Z,38.73
2022-10-23T21:25:10.176Z,44.50
2022-10-23T21:27:37.996Z,42.07
2022-10-23T21:30:06.920Z,46.33
2022-10-23T21:32:34.771Z,40.17
2022-10-23T21:35:02.713Z,45.47
2022-10-23T21:37:31.918Z,49.33
2022-10-23T21:39:59.764Z,60.90
2022-10-23T21:45:00.598Z,53.83
2022-10-23T21:47:28.431Z,54.33
2022-10-23T21:49:56.307Z,48.07
2022-10-23T21:52:24.119Z,49.13
2022-10-23T21:54:54.698Z,49.43
2022-10-23T21:57:22.585Z,52.53
2022-10-23T21:59:50.556Z,48.17
2022-10-23T22:02:18.852Z,51.63
2022-10-23T22:04:46.739Z,51.07
2022-10-23T22:07:15.227Z,58.73
2022-10-23T22:09:43.926Z,53.13
2022-10-23T22:12:13.716Z,58.53
2022-10-23T22:14:42.507Z,59.53
2022-10-23T22:17:10.339Z,53.43
2022-10-23T22:19:38.225Z,50.67
2022-10-23T22:22:06.167Z,52.80
2022-10-23T22:24:34.000Z,50.13
2022-10-23T22:27:01.859Z,52.20
2022-10-23T22:29:31.199Z,51.33
2022-10-23T22:31:59.823Z,53.07
2022-10-23T22:37:18.200Z,49.13
2022-10-23T22:39:46.044Z,51.47
2022-10-23T22:42:13.884Z,48.10
2022-10-23T22:44:43.096Z,44.00
2022-10-23T22:47:10.931Z,43.87
2022-10-23T22:49:39.417Z,43.63
2022-10-23T22:52:07.270Z,44.23
2022-10-23T22:54:35.340Z,43.93
2022-10-23T22:57:03.198Z,46.37
2022-10-23T22:59:31.028Z,44.53
2022-10-23T23:02:00.291Z,41.77
2022-10-23T23:04:43.323Z,41.17
2022-10-23T23:07:12.955Z,41.40
2022-10-23T23:09:42.296Z,41.57
2022-10-23T23:12:12.396Z,42.37
2022-10-23T23:14:41.021Z,39.70
2022-10-23T23:17:10.941Z,37.23
2022-10-23T23:19:39.303Z,36.47
2022-10-23T23:22:07.439Z,36.93
2022-10-23T23:24:35.343Z,37.17
2022-10-23T23:27:03.199Z,40.00
2022-10-23T23:29:31.021Z,32.40
2022-10-23T23:31:59.408Z,38.03
2022-10-23T23:34:29.853Z,39.03
2022-10-23T23:36:57.709Z,38.67
2022-10-23T23:39:26.097Z,40.67
2022-10-23T23:41:53.958Z,43.27
2022-10-23T23:44:21.946Z,43.43
2022-10-23T23:46:49.815Z,40.17
2022-10-23T23:49:17.715Z,35.27
2022-10-23T23:51:46.940Z,33.57
2022-10-23T23:54:14.823Z,33.40
2022-10-23T23:56:42.695Z,33.90
2022-10-23T23:59:10.505Z,30.27
